Time;durP1;ratioP1;P1;durP2;ratioP2;P2;SDS_P1;SDS_P2;PMS_P1;PMS_P2;Temp;Humidity;BMP_temperature;BMP_pressure;BME280_temperature;BME280_humidity;BME280_pressure;Samples;Min_cycle;Max_cycle;Signal;HPM_P1;HPM_P2
2022/03/25 00:02:07;;;;;;;36.60;21.75;;;9.30;73.80;;;;;;5095955;28;20074;-48
2022/03/25 00:04:33;;;;;;;31.23;19.73;;;9.30;74.30;;;;;;5115246;28;20028;-45
2022/03/25 00:06:59;;;;;;;39.17;21.10;;;9.30;75.60;;;;;;5114888;28;20039;-40
2022/03/25 00:09:24;;;;;;;39.75;22.23;;;9.20;75.90;;;;;;5114836;28;20490;-45
2022/03/25 00:11:50;;;;;;;31.63;20.42;;;9.20;77.00;;;;;;5115674;28;20028;-46
2022/03/25 00:14:16;;;;;;;43.78;21.13;;;9.10;77.80;;;;;;5114155;28;20031;-46
2022/03/25 00:16:42;;;;;;;38.65;20.20;;;9.10;77.60;;;;;;5113472;28;20027;-46
2022/03/25 00:19:08;;;;;;;35.10;21.27;;;9.10;77.30;;;;;;5113770;28;20054;-45
2022/03/25 00:21:34;;;;;;;35.92;20.40;;;9.10;77.20;;;;;;5113822;28;20482;-43
2022/03/25 00:24:00;;;;;;;38.22;22.17;;;9.10;76.70;;;;;;5115569;28;20470;-44
2022/03/25 00:26:25;;;;;;;35.55;21.40;;;9.10;76.30;;;;;;5115866;28;20019;-43
2022/03/25 00:28:51;;;;;;;36.08;20.88;;;9.10;76.30;;;;;;5115913;28;20023;-38
2022/03/25 00:31:17;;;;;;;34.72;20.08;;;9.10;76.30;;;;;;5115944;28;20072;-44
2022/03/25 00:33:44;;;;;;;45.40;23.75;;;9.00;76.50;;;;;;5115688;28;20386;-48
2022/03/25 00:36:10;;;;;;;35.08;22.58;;;9.00;76.50;;;;;;5114944;28;20023;-44
2022/03/25 00:38:36;;;;;;;41.25;23.65;;;9.00;76.40;;;;;;5114605;28;20487;-43
2022/03/25 00:41:06;;;;;;;40.30;25.02;;;8.90;76.60;;;;;;5114846;28;20031;-42
2022/03/25 00:43:32;;;;;;;43.35;23.65;;;8.80;76.80;;;;;;5114919;28;20440;-46
2022/03/25 00:45:58;;;;;;;36.95;24.98;;;8.80;76.90;;;;;;5115459;28;20393;-46
2022/03/25 00:48:23;;;;;;;36.88;22.45;;;8.80;77.20;;;;;;5114201;28;20107;-46
2022/03/25 00:50:49;;;;;;;46.03;25.23;;;8.70;77.60;;;;;;5114453;28;20502;-44
2022/03/25 00:53:14;;;;;;;40.35;25.02;;;8.60;77.90;;;;;;5114610;28;20035;-40
2022/03/25 00:55:40;;;;;;;49.80;23.45;;;8.60;77.70;;;;;;5114420;28;20106;-43
2022/03/25 00:58:05;;;;;;;43.80;24.38;;;8.60;77.60;;;;;;5114316;28;20046;-45
2022/03/25 01:00:31;;;;;;;37.72;23.15;;;8.60;77.50;;;;;;5114453;28;20044;-40
2022/03/25 01:02:56;;;;;;;34.72;22.67;;;8.50;77.90;;;;;;5096343;28;20058;-43
2022/03/25 01:05:22;;;;;;;41.58;22.02;;;8.50;78.70;;;;;;5114870;28;20075;-45
2022/03/25 01:07:47;;;;;;;43.00;22.77;;;8.50;78.60;;;;;;5113561;28;20026;-46
2022/03/25 01:10:13;;;;;;;41.33;23.15;;;8.50;78.20;;;;;;5114696;28;20110;-39
2022/03/25 01:12:39;;;;;;;43.90;22.83;;;8.40;78.40;;;;;;5113614;28;20122;-40
2022/03/25 01:15:05;;;;;;;42.47;23.60;;;8.40;78.10;;;;;;5114786;28;20112;-48
2022/03/25 01:17:31;;;;;;;33.20;21.20;;;8.40;78.40;;;;;;5114038;28;20030;-46
2022/03/25 01:19:56;;;;;;;36.42;22.55;;;8.30;79.40;;;;;;5095840;28;20024;-43
2022/03/25 01:22:22;;;;;;;32.42;21.40;;;8.30;80.30;;;;;;5114074;28;20028;-45
2022/03/25 01:24:49;;;;;;;40.10;22.02;;;8.20;80.70;;;;;;5114185;28;20019;-46
2022/03/25 01:27:14;;;;;;;37.78;22.15;;;8.30;80.70;;;;;;5113928;28;20016;-48
2022/03/25 01:29:40;;;;;;;43.03;24.23;;;8.10;81.10;;;;;;5113755;28;20106;-46
2022/03/25 01:32:07;;;;;;;35.65;20.75;;;8.10;82.00;;;;;;5114945;28;20569;-43
2022/03/25 01:34:33;;;;;;;33.78;20.05;;;8.10;82.30;;;;;;5114919;28;20364;-43
2022/03/25 01:36:59;;;;;;;36.75;23.38;;;8.10;82.80;;;;;;5114102;28;20046;-44
2022/03/25 01:39:24;;;;;;;34.25;20.95;;;8.00;83.00;;;;;;5116265;28;20501;-45
2022/03/25 01:41:50;;;;;;;37.28;22.35;;;8.00;82.90;;;;;;5115359;28;20020;-41
2022/03/25 01:44:25;;;;;;;37.35;22.55;;;8.00;82.50;;;;;;5097007;28;20023;-44
2022/03/25 01:46:52;;;;;;;37.85;22.63;;;7.90;82.60;;;;;;5114846;28;20020;-44
2022/03/25 01:49:19;;;;;;;58.05;33.25;;;7.90;83.30;;;;;;5114411;28;20482;-43
2022/03/25 01:51:51;;;;;;;45.65;25.85;;;7.90;83.40;;;;;;5114271;28;20024;-45
2022/03/25 01:54:25;;;;;;;48.90;23.85;;;7.80;84.00;;;;;;5114358;28;20038;-45
2022/03/25 01:57:03;;;;;;;43.47;23.58;;;7.80;85.20;;;;;;5117157;28;20164;-42
2022/03/25 01:59:30;;;;;;;33.92;21.10;;;7.80;86.00;;;;;;5117477;28;20046;-48
2022/03/25 02:01:55;;;;;;;41.28;23.05;;;7.70;86.00;;;;;;5099581;28;20019;-43
2022/03/25 02:04:22;;;;;;;38.72;23.05;;;7.70;84.40;;;;;;5117521;28;20039;-45
2022/03/25 02:06:48;;;;;;;43.65;25.75;;;7.60;84.30;;;;;;5114751;28;20026;-42
2022/03/25 02:09:13;;;;;;;47.63;25.65;;;7.60;84.00;;;;;;5112958;28;20024;-46
2022/03/25 02:11:39;;;;;;;50.10;27.83;;;7.80;83.00;;;;;;5113703;28;20104;-45
2022/03/25 02:14:05;;;;;;;43.88;27.02;;;8.00;82.20;;;;;;5132046;22;20043;-41
2022/03/25 02:16:40;;;;;;;46.35;26.08;;;8.00;81.40;;;;;;5111669;28;20043;-43
2022/03/25 02:19:08;;;;;;;45.47;23.73;;;8.20;80.70;;;;;;5110956;28;20406;-42
2022/03/25 02:21:35;;;;;;;41.70;24.77;;;8.30;80.60;;;;;;5111670;28;20024;-44
2022/03/25 02:24:01;;;;;;;45.25;26.73;;;8.40;80.30;;;;;;5094180;28;20076;-41
2022/03/25 02:26:28;;;;;;;41.90;25.05;;;8.50;80.10;;;;;;5115384;28;20027;-43
2022/03/25 02:28:54;;;;;;;49.63;27.85;;;8.50;79.80;;;;;;5115189;28;20027;-43
2022/03/25 02:31:20;;;;;;;53.28;27.95;;;8.50;80.00;;;;;;5115570;28;20019;-43
2022/03/25 02:33:46;;;;;;;44.53;25.17;;;8.50;79.30;;;;;;5115186;28;20430;-43
2022/03/25 02:36:11;;;;;;;46.58;24.17;;;8.60;79.40;;;;;;5116441;28;20027;-43
2022/03/25 02:38:37;;;;;;;45.17;26.55;;;8.50;79.50;;;;;;5116002;28;20025;-42
2022/03/25 02:41:03;;;;;;;49.42;26.27;;;8.60;79.10;;;;;;5116231;28;20039;-46
2022/03/25 02:43:29;;;;;;;51.53;28.40;;;8.70;78.90;;;;;;5115734;28;20464;-44
2022/03/25 02:45:55;;;;;;;47.53;26.88;;;8.80;78.40;;;;;;5116373;28;20023;-42
2022/03/25 02:48:20;;;;;;;49.42;26.70;;;8.90;78.10;;;;;;5116182;28;20383;-42
2022/03/25 02:50:48;;;;;;;45.72;26.85;;;8.90;78.00;;;;;;5098462;28;20023;-42
2022/03/25 02:53:15;;;;;;;52.90;27.23;;;8.90;78.20;;;;;;5115937;28;20023;-41
2022/03/25 02:55:41;;;;;;;49.58;27.30;;;8.80;78.40;;;;;;5115142;28;20020;-43
2022/03/25 02:58:08;;;;;;;45.25;27.05;;;8.70;78.80;;;;;;5114104;28;20398;-42
2022/03/25 03:00:34;;;;;;;45.58;26.23;;;8.60;79.30;;;;;;5115137;28;20019;-41
2022/03/25 03:03:00;;;;;;;48.25;26.13;;;8.50;79.70;;;;;;5114976;28;20027;-42
2022/03/25 03:05:27;;;;;;;52.05;28.80;;;8.50;80.10;;;;;;5115195;28;20054;-44
2022/03/25 03:07:52;;;;;;;58.00;28.23;;;8.40;79.80;;;;;;5114500;28;20023;-42
2022/03/25 03:10:18;;;;;;;52.38;26.42;;;8.40;79.80;;;;;;5081006;28;20059;-43
2022/03/25 03:12:44;;;;;;;50.05;26.50;;;8.40;79.70;;;;;;5095315;28;20430;-43
2022/03/25 03:15:10;;;;;;;48.35;25.85;;;8.40;80.20;;;;;;5094934;28;20380;-42
2022/03/25 03:17:36;;;;;;;51.80;26.45;;;8.40;80.50;;;;;;5109336;28;20052;-41
2022/03/25 03:20:02;;;;;;;59.17;28.60;;;8.30;80.50;;;;;;5113652;28;20506;-42
2022/03/25 03:22:28;;;;;;;49.28;26.50;;;8.30;80.80;;;;;;5114418;28;20023;-41
2022/03/25 03:24:53;;;;;;;39.88;25.05;;;8.30;80.80;;;;;;5114373;28;20027;-42
2022/03/25 03:27:19;;;;;;;50.17;27.40;;;8.20;81.50;;;;;;5113964;28;20020;-41
2022/03/25 03:29:45;;;;;;;45.28;27.88;;;8.20;81.80;;;;;;5114090;28;20030;-43
2022/03/25 03:32:10;;;;;;;46.33;27.40;;;8.10;82.80;;;;;;5114095;28;20175;-45
2022/03/25 03:34:36;;;;;;;47.35;27.48;;;8.00;82.80;;;;;;5113948;28;20059;-41
2022/03/25 03:37:03;;;;;;;51.63;28.42;;;8.00;83.20;;;;;;5112684;28;20443;-44
2022/03/25 03:39:28;;;;;;;54.05;28.77;;;8.00;83.40;;;;;;5114001;28;20023;-43
2022/03/25 03:41:54;;;;;;;46.90;27.85;;;8.00;83.40;;;;;;5114347;28;20483;-42
2022/03/25 03:44:19;;;;;;;57.08;27.63;;;8.00;83.60;;;;;;5096161;28;20073;-42
2022/03/25 03:46:45;;;;;;;50.45;28.15;;;8.00;83.80;;;;;;5113550;28;20545;-37
2022/03/25 03:49:11;;;;;;;46.67;27.40;;;7.90;84.00;;;;;;5113664;28;20376;-40
2022/03/25 03:51:36;;;;;;;51.63;28.20;;;8.00;83.90;;;;;;5095492;28;20070;-44
2022/03/25 03:54:03;;;;;;;49.10;29.10;;;7.90;84.10;;;;;;5113775;28;20020;-41
2022/03/25 03:56:28;;;;;;;48.88;27.33;;;7.80;84.50;;;;;;5113554;28;20024;-40
2022/03/25 03:58:54;;;;;;;50.53;26.73;;;7.80;84.70;;;;;;5113165;28;20035;-43
2022/03/25 04:01:19;;;;;;;49.17;27.83;;;7.80;85.00;;;;;;5113694;28;20027;-40
2022/03/25 04:03:45;;;;;;;48.95;27.88;;;7.70;85.40;;;;;;5113441;28;20438;-41
2022/03/25 04:06:11;;;;;;;50.45;28.35;;;7.60;85.90;;;;;;5112099;28;20148;-41
2022/03/25 04:08:36;;;;;;;48.85;29.00;;;7.60;86.00;;;;;;5111543;28;20377;-40
2022/03/25 04:11:03;;;;;;;64.80;37.10;;;7.60;86.40;;;;;;5095046;28;20020;-41
2022/03/25 04:13:28;;;;;;;47.67;28.73;;;7.50;86.60;;;;;;5113262;28;20035;-41
2022/03/25 04:15:54;;;;;;;50.28;28.35;;;7.60;86.20;;;;;;5113274;28;20402;-45
2022/03/25 04:18:19;;;;;;;47.67;27.50;;;7.60;86.10;;;;;;5094491;28;20080;-42
2022/03/25 04:20:45;;;;;;;51.47;29.42;;;7.60;86.40;;;;;;5113302;28;20436;-42
2022/03/25 04:23:11;;;;;;;52.45;27.35;;;7.50;86.80;;;;;;5113345;28;20486;-43
2022/03/25 04:25:36;;;;;;;46.55;28.63;;;7.50;87.10;;;;;;5113123;28;20019;-43
2022/03/25 04:28:02;;;;;;;50.80;28.30;;;7.40;87.50;;;;;;5112795;28;20032;-39
2022/03/25 04:30:33;;;;;;;51.78;27.27;;;7.40;87.80;;;;;;5113022;28;20031;-41
2022/03/25 04:32:59;;;;;;;47.95;28.83;;;7.20;88.50;;;;;;5113138;28;20050;-46
2022/03/25 04:35:25;;;;;;;44.40;26.20;;;7.20;89.00;;;;;;5112851;28;20054;-42
2022/03/25 04:37:52;;;;;;;49.53;27.45;;;7.20;88.90;;;;;;5112667;28;20026;-43
2022/03/25 04:40:19;;;;;;;51.83;28.90;;;7.10;89.40;;;;;;5094522;28;20398;-41
2022/03/25 04:42:46;;;;;;;44.33;26.00;;;7.10;90.00;;;;;;5112753;28;20023;-42
2022/03/25 04:45:13;;;;;;;41.95;26.02;;;7.00;90.20;;;;;;5112718;28;20024;-42
2022/03/25 04:47:39;;;;;;;52.58;27.42;;;7.00;90.30;;;;;;5112781;28;20027;-44
2022/03/25 04:50:04;;;;;;;51.35;28.80;;;7.00;90.50;;;;;;5112687;28;20030;-42
2022/03/25 04:52:30;;;;;;;54.20;29.65;;;6.90;90.60;;;;;;5094223;28;20058;-41
2022/03/25 04:54:55;;;;;;;48.00;29.27;;;6.90;90.70;;;;;;5112865;28;20054;-41
2022/03/25 04:57:22;;;;;;;45.25;27.80;;;6.90;91.10;;;;;;5094017;28;20051;-43
2022/03/25 04:59:47;;;;;;;51.22;28.10;;;6.90;91.10;;;;;;5112206;28;20028;-39
2022/03/25 05:02:13;;;;;;;48.33;26.73;;;6.90;91.20;;;;;;5112766;28;20547;-45
2022/03/25 05:04:38;;;;;;;51.63;27.15;;;6.80;91.30;;;;;;5112600;28;20016;-41
2022/03/25 05:07:04;;;;;;;56.55;28.88;;;6.80;91.60;;;;;;5112224;28;20110;-40
2022/03/25 05:09:29;;;;;;;48.72;26.98;;;6.70;91.80;;;;;;5111974;28;20027;-40
2022/03/25 05:11:55;;;;;;;53.85;27.80;;;6.70;92.00;;;;;;5112365;28;20024;-44
2022/03/25 05:14:20;;;;;;;47.70;27.23;;;6.70;92.10;;;;;;5112508;28;20031;-45
2022/03/25 05:16:52;;;;;;;55.67;30.50;;;6.60;92.30;;;;;;5112224;28;20394;-41
2022/03/25 05:19:19;;;;;;;47.30;26.48;;;6.60;92.50;;;;;;5112463;28;20110;-41
2022/03/25 05:21:44;;;;;;;47.80;28.48;;;6.50;92.60;;;;;;5094018;28;20066;-42
2022/03/25 05:24:10;;;;;;;47.08;25.83;;;6.50;92.60;;;;;;5112198;28;20024;-41
2022/03/25 05:26:35;;;;;;;46.17;27.77;;;6.50;92.60;;;;;;5111990;28;20502;-43
2022/03/25 05:29:01;;;;;;;56.85;27.60;;;6.60;92.90;;;;;;5111920;28;20038;-42
2022/03/25 05:31:26;;;;;;;50.90;28.25;;;6.60;92.70;;;;;;5112681;28;20110;-41
2022/03/25 05:33:52;;;;;;;47.83;28.27;;;6.70;92.70;;;;;;5112480;28;20027;-41
2022/03/25 05:36:18;;;;;;;40.03;26.25;;;6.70;92.60;;;;;;5112374;28;20457;-41
2022/03/25 05:38:43;;;;;;;49.53;26.75;;;6.80;92.60;;;;;;5112080;28;20024;-41
2022/03/25 05:41:09;;;;;;;46.17;27.00;;;6.80;92.60;;;;;;5112085;28;20115;-42
2022/03/25 05:43:34;;;;;;;46.28;27.48;;;6.80;92.70;;;;;;5112039;28;20104;-41
2022/03/25 05:46:00;;;;;;;56.05;29.40;;;6.90;92.60;;;;;;5093741;28;20062;-40
2022/03/25 05:48:26;;;;;;;60.13;29.75;;;7.10;92.10;;;;;;5111672;28;20106;-41
2022/03/25 05:50:51;;;;;;;50.00;27.65;;;7.40;91.60;;;;;;5112573;28;20122;-44
2022/03/25 05:53:17;;;;;;;50.47;28.30;;;7.50;91.20;;;;;;5112033;28;20371;-43
2022/03/25 05:55:42;;;;;;;54.40;27.92;;;7.60;90.90;;;;;;5094036;28;20039;-42
2022/03/25 05:58:08;;;;;;;56.05;27.65;;;7.60;90.70;;;;;;5112757;28;20035;-45
2022/03/25 06:00:34;;;;;;;52.65;28.67;;;7.60;90.80;;;;;;5115609;28;20486;-43
2022/03/25 06:02:59;;;;;;;53.00;27.92;;;7.60;90.70;;;;;;5116149;28;20030;-43
2022/03/25 06:05:25;;;;;;;43.38;27.13;;;7.70;90.40;;;;;;5115828;28;20016;-44
2022/03/25 06:07:51;;;;;;;44.33;27.20;;;7.60;90.70;;;;;;5115065;28;20020;-41
2022/03/25 06:10:17;;;;;;;46.88;28.63;;;7.70;90.40;;;;;;5115674;28;20022;-44
2022/03/25 06:12:42;;;;;;;56.20;28.98;;;7.80;90.50;;;;;;5115392;28;20072;-43
2022/03/25 06:15:09;;;;;;;45.80;27.30;;;8.00;90.20;;;;;;5115826;28;20027;-44
2022/03/25 06:17:48;;;;;;;46.17;29.17;;;8.20;89.60;;;;;;5115346;28;20445;-41
2022/03/25 06:20:17;;;;;;;47.28;28.98;;;8.30;88.50;;;;;;5097175;28;20376;-43
2022/03/25 06:22:43;;;;;;;51.83;28.70;;;8.40;88.00;;;;;;5115438;28;20030;-45
2022/03/25 06:25:11;;;;;;;48.42;27.52;;;8.30;87.90;;;;;;5116400;28;20390;-43
2022/03/25 06:27:51;;;;;;;51.33;29.38;;;8.30;88.40;;;;;;5115131;28;20016;-44
2022/03/25 06:30:19;;;;;;;47.60;27.90;;;8.30;88.80;;;;;;5097230;28;20551;-41
2022/03/25 06:32:44;;;;;;;44.55;27.02;;;8.70;86.90;;;;;;5115188;28;20080;-43
2022/03/25 06:35:10;;;;;;;55.50;28.38;;;9.00;85.30;;;;;;5115333;28;20107;-43
2022/03/25 06:37:36;;;;;;;50.88;29.88;;;9.40;84.10;;;;;;5114754;28;20035;-43
2022/03/25 06:40:07;;;;;;;52.50;30.15;;;9.40;83.60;;;;;;5115083;28;20039;-41
2022/03/25 06:42:37;;;;;;;55.50;29.10;;;9.30;84.60;;;;;;5115063;28;20035;-42
2022/03/25 06:45:04;;;;;;;53.60;29.13;;;9.30;83.70;;;;;;5115131;28;20045;-43
2022/03/25 06:47:30;;;;;;;50.42;28.05;;;9.30;83.70;;;;;;5114477;28;20076;-42
2022/03/25 06:49:56;;;;;;;47.25;27.88;;;9.60;83.40;;;;;;5096747;28;20032;-43
2022/03/25 06:52:22;;;;;;;50.53;29.63;;;9.80;82.70;;;;;;5115747;28;20395;-41
2022/03/25 06:54:47;;;;;;;47.70;28.75;;;10.10;82.40;;;;;;5115509;28;20035;-43
2022/03/25 06:57:13;;;;;;;43.15;27.27;;;10.40;80.10;;;;;;5115922;28;20027;-43
2022/03/25 06:59:41;;;;;;;46.42;28.15;;;10.60;79.40;;;;;;5115613;28;20030;-43
2022/03/25 07:02:08;;;;;;;45.40;27.48;;;10.90;78.60;;;;;;5115206;28;20016;-43
2022/03/25 07:04:34;;;;;;;40.15;26.95;;;11.20;77.80;;;;;;5096665;28;20046;-43
2022/03/25 07:07:04;;;;;;;52.03;29.60;;;11.60;76.10;;;;;;5114342;28;20048;-43
2022/03/25 07:09:29;;;;;;;56.33;29.17;;;11.70;74.80;;;;;;5114159;28;20019;-43
2022/03/25 07:11:56;;;;;;;44.83;28.35;;;12.00;73.90;;;;;;5113172;28;20406;-43
2022/03/25 07:14:21;;;;;;;45.70;27.80;;;12.10;74.20;;;;;;5114557;28;20035;-45
2022/03/25 07:16:47;;;;;;;45.35;27.35;;;12.20;73.50;;;;;;5114293;28;20024;-40
2022/03/25 07:19:12;;;;;;;46.28;29.17;;;12.40;73.00;;;;;;5114712;28;20031;-43
2022/03/25 07:21:38;;;;;;;49.72;28.85;;;12.70;71.50;;;;;;5116078;28;20031;-42
2022/03/25 07:24:04;;;;;;;42.85;26.90;;;12.80;71.60;;;;;;5115616;28;20016;-43
2022/03/25 07:26:30;;;;;;;46.67;28.73;;;12.90;71.80;;;;;;5114833;28;20015;-46
2022/03/25 07:28:55;;;;;;;43.03;26.70;;;13.00;72.10;;;;;;5113935;28;20415;-43
2022/03/25 07:31:20;;;;;;;45.45;29.52;;;13.50;70.60;;;;;;5114300;28;20020;-43
2022/03/25 07:33:46;;;;;;;41.30;26.40;;;13.30;69.50;;;;;;5114153;28;20023;-46
2022/03/25 07:36:12;;;;;;;47.75;27.77;;;13.60;69.80;;;;;;5095785;28;20031;-44
2022/03/25 07:38:37;;;;;;;49.10;29.52;;;14.10;69.00;;;;;;5113749;28;20407;-45
2022/03/25 07:41:03;;;;;;;40.22;27.45;;;14.20;67.80;;;;;;5095660;28;20383;-42
2022/03/25 07:43:30;;;;;;;47.90;28.55;;;14.10;67.80;;;;;;5114014;28;20073;-45
2022/03/25 07:45:56;;;;;;;47.63;27.73;;;14.00;69.00;;;;;;5113923;28;20479;-43
2022/03/25 07:48:22;;;;;;;43.85;28.48;;;13.90;69.10;;;;;;5113624;28;20031;-44
2022/03/25 07:50:47;;;;;;;40.28;27.27;;;14.30;68.20;;;;;;5114426;28;20019;-42
2022/03/25 07:53:13;;;;;;;44.67;29.05;;;14.70;67.70;;;;;;5114425;28;20058;-43
2022/03/25 07:55:39;;;;;;;43.28;27.85;;;15.10;67.30;;;;;;5114270;28;20390;-42
2022/03/25 07:58:04;;;;;;;51.45;28.35;;;15.60;65.40;;;;;;5114360;28;20020;-44
2022/03/25 08:00:30;;;;;;;43.55;28.23;;;15.50;64.90;;;;;;5114383;28;20032;-43
2022/03/25 08:02:56;;;;;;;44.85;28.13;;;15.20;66.30;;;;;;5095672;28;20015;-43
2022/03/25 08:05:23;;;;;;;43.72;29.70;;;14.70;66.00;;;;;;5114154;28;20050;-42
2022/03/25 08:07:57;;;;;;;48.13;29.95;;;13.80;68.00;;;;;;5112784;28;20460;-44
2022/03/25 08:10:28;;;;;;;45.57;29.43;;;13.60;69.30;;;;;;5114060;28;20031;-45
2022/03/25 08:15:24;;;;;;;45.70;29.75;;;12.70;72.50;;;;;;5092586;22;20125;-43
2022/03/25 08:17:56;;;;;;;47.53;31.38;;;12.40;73.40;;;;;;5073873;28;20025;-42
2022/03/25 08:20:26;;;;;;;53.00;30.20;;;12.00;74.90;;;;;;5074623;28;20028;-47
2022/03/25 08:22:53;;;;;;;51.95;30.55;;;12.00;75.30;;;;;;5074142;28;20032;-44
2022/03/25 08:28:02;;;;;;;56.72;29.73;;;11.70;75.60;;;;;;5074337;28;20035;-43
2022/03/25 08:30:30;;;;;;;54.33;30.52;;;11.70;76.00;;;;;;5074401;28;20495;-46
2022/03/25 08:32:57;;;;;;;53.55;30.02;;;11.70;76.30;;;;;;5074770;28;20060;-44
2022/03/25 08:35:24;;;;;;;57.42;30.15;;;11.80;76.20;;;;;;5074702;28;20025;-49
2022/03/25 08:37:49;;;;;;;61.65;32.42;;;11.90;76.90;;;;;;5074149;28;20511;-44
2022/03/25 08:40:15;;;;;;;47.10;30.33;;;12.00;76.20;;;;;;5074304;28;20048;-44
2022/03/25 08:42:40;;;;;;;50.47;29.50;;;11.90;76.20;;;;;;5074733;28;20029;-39
2022/03/25 08:45:06;;;;;;;50.92;30.98;;;12.00;77.40;;;;;;5074011;28;20484;-43
2022/03/25 08:47:32;;;;;;;60.40;30.83;;;12.10;76.30;;;;;;5073984;28;20399;-45
2022/03/25 08:49:57;;;;;;;56.20;32.88;;;12.30;75.70;;;;;;5073256;28;20048;-43
2022/03/25 08:52:23;;;;;;;55.85;31.90;;;12.30;75.90;;;;;;5074909;28;20024;-42
2022/03/25 08:54:48;;;;;;;63.47;32.00;;;12.40;74.40;;;;;;5075162;28;20438;-40
2022/03/25 08:57:14;;;;;;;59.20;31.95;;;12.50;75.10;;;;;;5075085;28;20032;-46
2022/03/25 08:59:39;;;;;;;59.60;31.48;;;13.10;73.50;;;;;;5074612;28;20033;-43
2022/03/25 09:02:06;;;;;;;57.72;32.38;;;14.00;71.40;;;;;;5073987;28;20054;-38
2022/03/25 09:04:32;;;;;;;53.63;32.42;;;15.20;68.20;;;;;;5073247;28;20454;-45
2022/03/25 09:06:57;;;;;;;49.83;31.92;;;16.30;65.70;;;;;;5073266;28;20028;-45
2022/03/25 09:09:23;;;;;;;52.70;32.03;;;17.20;63.20;;;;;;5072202;28;20418;-46
2022/03/25 09:11:48;;;;;;;54.35;34.08;;;17.70;60.70;;;;;;5072794;28;20122;-50
2022/03/25 09:14:14;;;;;;;56.47;34.53;;;18.20;60.30;;;;;;5072473;28;20056;-45
2022/03/25 09:16:40;;;;;;;63.20;34.53;;;18.70;58.60;;;;;;5054664;28;20611;-45
2022/03/25 09:19:06;;;;;;;49.55;32.65;;;18.90;57.60;;;;;;5072363;28;20028;-43
2022/03/25 09:21:32;;;;;;;55.83;34.13;;;18.70;58.30;;;;;;5073394;28;20374;-43
2022/03/25 09:23:57;;;;;;;52.97;31.90;;;19.10;58.50;;;;;;5054832;28;20028;-48
2022/03/25 09:26:25;;;;;;;48.42;32.60;;;19.10;56.90;;;;;;5054579;28;20065;-43
2022/03/25 09:28:51;;;;;;;54.50;34.65;;;19.50;57.80;;;;;;5072544;28;20028;-44
2022/03/25 09:31:16;;;;;;;56.90;32.53;;;19.90;55.80;;;;;;5072893;28;20036;-45
2022/03/25 09:33:42;;;;;;;46.83;32.40;;;20.00;54.50;;;;;;5072072;28;20024;-45
2022/03/25 09:36:08;;;;;;;46.38;31.23;;;20.30;53.90;;;;;;5072414;28;20538;-44
2022/03/25 09:38:33;;;;;;;49.78;32.38;;;20.40;53.70;;;;;;5071834;28;20032;-45
2022/03/25 09:41:03;;;;;;;47.15;32.33;;;20.70;53.70;;;;;;5072347;28;20017;-44
2022/03/25 09:43:29;;;;;;;58.83;33.97;;;20.80;52.30;;;;;;5072866;28;20012;-42
2022/03/25 09:45:55;;;;;;;58.80;34.08;;;19.90;52.80;;;;;;5075239;28;20023;-44
2022/03/25 09:48:20;;;;;;;52.85;32.28;;;19.10;53.90;;;;;;5074425;28;20483;-38
2022/03/25 09:50:46;;;;;;;50.17;32.20;;;18.30;55.10;;;;;;5073960;28;20502;-43
2022/03/25 09:53:11;;;;;;;49.22;34.35;;;18.10;55.30;;;;;;5075048;28;20096;-43
2022/03/25 09:55:40;;;;;;;57.53;33.50;;;18.10;55.60;;;;;;5074340;28;20077;-42
2022/03/25 09:58:06;;;;;;;53.85;32.58;;;17.80;56.40;;;;;;5074644;28;20070;-44
2022/03/25 10:00:32;;;;;;;60.60;33.05;;;18.00;56.30;;;;;;5075237;28;20108;-43
2022/03/25 10:02:57;;;;;;;46.55;32.35;;;18.20;56.60;;;;;;5073629;28;20067;-44
2022/03/25 10:05:23;;;;;;;56.95;32.97;;;17.80;54.50;;;;;;5073154;28;20016;-43
2022/03/25 10:07:51;;;;;;;48.83;31.52;;;17.70;55.10;;;;;;5074343;28;20049;-42
2022/03/25 10:10:19;;;;;;;56.50;33.08;;;17.80;55.50;;;;;;5074778;28;20033;-43
2022/03/25 10:12:47;;;;;;;47.75;31.90;;;18.10;55.10;;;;;;5074360;28;20052;-43
2022/03/25 10:15:25;;;;;;;44.83;31.10;;;18.50;55.00;;;;;;5072195;28;20032;-44
2022/03/25 10:17:59;;;;;;;51.72;31.58;;;18.60;53.70;;;;;;5071878;28;20055;-43
2022/03/25 10:20:31;;;;;;;46.90;31.03;;;18.50;55.00;;;;;;5071824;28;20027;-45
2022/03/25 10:22:57;;;;;;;50.50;32.63;;;18.40;55.80;;;;;;5054219;28;20434;-48
2022/03/25 10:25:55;;;;;;;54.28;31.70;;;18.20;55.10;;;;;;5072064;28;20016;-40
2022/03/25 10:28:26;;;;;;;48.10;32.88;;;17.90;55.00;;;;;;5072118;28;20016;-39
2022/03/25 10:30:53;;;;;;;55.17;32.88;;;17.40;53.60;;;;;;5072369;28;20383;-43
2022/03/25 10:33:26;;;;;;;55.33;31.52;;;17.30;55.20;;;;;;5072265;28;20233;-43
2022/03/25 10:35:56;;;;;;;54.92;34.25;;;17.20;55.90;;;;;;5072185;28;20024;-43
2022/03/25 10:38:22;;;;;;;49.03;33.55;;;17.00;55.40;;;;;;5072205;28;20016;-45
2022/03/25 10:40:50;;;;;;;51.05;31.10;;;17.00;56.80;;;;;;5053950;28;20024;-43
2022/03/25 10:43:15;;;;;;;51.70;32.65;;;17.10;56.50;;;;;;5071520;28;20021;-47
2022/03/25 10:45:41;;;;;;;51.10;32.88;;;17.20;55.70;;;;;;5055881;28;20031;-39
2022/03/25 10:48:21;;;;;;;52.60;32.50;;;17.20;55.70;;;;;;5073849;28;20043;-47
2022/03/25 10:51:04;;;;;;;50.53;32.78;;;17.20;55.70;;;;;;5075350;28;20107;-42
2022/03/25 10:53:33;;;;;;;49.78;33.25;;;17.10;56.00;;;;;;5075404;28;20021;-43
2022/03/25 10:55:59;;;;;;;49.03;33.05;;;17.00;57.10;;;;;;5075482;28;20022;-46
2022/03/25 10:58:26;;;;;;;51.72;33.90;;;17.00;56.60;;;;;;5075599;28;20100;-46
2022/03/25 11:00:51;;;;;;;52.50;32.90;;;17.10;56.10;;;;;;5057331;28;20101;-45
2022/03/25 11:03:17;;;;;;;49.55;33.08;;;17.20;56.20;;;;;;5075105;28;20028;-43
2022/03/25 11:05:44;;;;;;;48.72;34.70;;;17.40;56.90;;;;;;5075569;28;20426;-48
2022/03/25 11:08:10;;;;;;;48.55;33.20;;;17.50;57.00;;;;;;5074489;28;20112;-42
2022/03/25 11:10:36;;;;;;;61.80;33.55;;;17.50;55.70;;;;;;5075330;28;20058;-48
2022/03/25 11:13:02;;;;;;;54.03;31.70;;;17.50;55.70;;;;;;5075368;28;20020;-40
2022/03/25 11:15:30;;;;;;;59.67;35.88;;;17.30;56.30;;;;;;5057595;28;20040;-40
2022/03/25 11:17:57;;;;;;;51.40;33.10;;;17.30;56.90;;;;;;5075135;28;20029;-43
2022/03/25 11:20:25;;;;;;;48.30;30.52;;;17.40;56.50;;;;;;5074591;28;20059;-43
2022/03/25 11:23:06;;;;;;;50.72;34.63;;;17.30;56.10;;;;;;5077531;28;20043;-44
2022/03/25 11:25:36;;;;;;;47.50;33.85;;;17.50;56.60;;;;;;5076394;28;20025;-45
2022/03/25 11:28:08;;;;;;;49.17;32.28;;;17.50;55.20;;;;;;5075416;28;20016;-43
2022/03/25 11:30:35;;;;;;;49.78;32.58;;;17.30;55.80;;;;;;5075305;28;20028;-44
2022/03/25 11:33:03;;;;;;;44.13;31.33;;;17.20;55.40;;;;;;5074734;28;20031;-42
2022/03/25 11:35:32;;;;;;;52.10;33.33;;;17.10;56.30;;;;;;5075128;28;20434;-40
2022/03/25 11:38:18;;;;;;;49.10;33.10;;;17.10;55.80;;;;;;5074462;28;20427;-48
2022/03/25 11:40:48;;;;;;;53.75;33.03;;;17.10;55.20;;;;;;5074743;28;20036;-49
2022/03/25 11:43:27;;;;;;;55.75;32.80;;;17.10;55.90;;;;;;5074316;28;20379;-44
2022/03/25 11:46:06;;;;;;;49.85;31.05;;;17.10;56.90;;;;;;5074593;28;20049;-43
2022/03/25 11:48:40;;;;;;;50.97;33.00;;;17.30;55.80;;;;;;5074409;28;20020;-41
2022/03/25 11:51:25;;;;;;;54.80;32.58;;;17.30;55.80;;;;;;5074202;28;20025;-47
2022/03/25 11:53:51;;;;;;;55.40;33.50;;;17.40;56.10;;;;;;5075244;28;20020;-47
2022/03/25 11:56:16;;;;;;;55.78;33.13;;;17.40;55.80;;;;;;5074785;28;20569;-45
2022/03/25 11:59:00;;;;;;;50.15;33.03;;;17.40;55.20;;;;;;5074073;28;20059;-39
2022/03/25 12:01:26;;;;;;;53.75;32.70;;;17.40;56.00;;;;;;5074227;28;20050;-45
2022/03/25 12:03:59;;;;;;;51.75;33.30;;;17.50;54.80;;;;;;5074023;28;20025;-42
2022/03/25 12:07:08;;;;;;;56.47;33.60;;;17.50;55.10;;;;;;5073913;28;20021;-48
2022/03/25 12:09:38;;;;;;;49.55;32.42;;;17.50;55.70;;;;;;5074049;28;20043;-49
2022/03/25 12:12:04;;;;;;;60.85;35.42;;;17.40;55.50;;;;;;5074219;28;20020;-41
2022/03/25 12:14:34;;;;;;;47.80;31.50;;;17.50;54.80;;;;;;5073410;28;20040;-41
2022/03/25 12:17:04;;;;;;;50.40;31.92;;;17.50;55.30;;;;;;5073737;28;20025;-46
2022/03/25 12:19:38;;;;;;;50.05;30.83;;;17.60;55.80;;;;;;5073541;28;20040;-45
2022/03/25 12:22:25;;;;;;;49.47;30.75;;;17.60;54.30;;;;;;5073669;28;20064;-41
2022/03/25 12:24:55;;;;;;;51.95;32.90;;;17.60;54.20;;;;;;5073110;28;20070;-40
2022/03/25 12:27:23;;;;;;;52.17;32.40;;;17.70;54.60;;;;;;5073098;28;20484;-45
2022/03/25 12:29:51;;;;;;;48.53;31.33;;;17.70;54.60;;;;;;5073302;28;20047;-48
2022/03/25 12:32:18;;;;;;;48.72;32.28;;;17.70;54.10;;;;;;5073108;28;20028;-46
2022/03/25 12:34:53;;;;;;;57.47;32.38;;;17.70;54.40;;;;;;5073306;28;20066;-49
2022/03/25 12:37:26;;;;;;;49.80;33.88;;;17.80;54.50;;;;;;5073273;28;20028;-40
2022/03/25 12:39:52;;;;;;;51.17;30.42;;;17.80;54.50;;;;;;5055478;28;20035;-46